sensor_id;sensor_type;location;lat;lon;timestamp;P1;durP1;ratioP1;P2;durP2;ratioP2
55718;SDS011;41623;46.104;19.656;2023-01-24T00:02:15;2.47;;;1.70;;
55718;SDS011;41623;46.104;19.656;2023-01-24T00:04:41;2.00;;;1.77;;
55718;SDS011;41623;46.104;19.656;2023-01-24T00:07:07;1.77;;;1.65;;
55718;SDS011;41623;46.104;19.656;2023-01-24T00:09:33;5.30;;;2.70;;
55718;SDS011;41623;46.104;19.656;2023-01-24T00:12:00;3.00;;;2.13;;
55718;SDS011;41623;46.104;19.656;2023-01-24T00:14:27;7.13;;;3.08;;
55718;SDS011;41623;46.104;19.656;2023-01-24T00:16:53;6.55;;;3.38;;
55718;SDS011;41623;46.104;19.656;2023-01-24T00:19:19;8.77;;;3.65;;
55718;SDS011;41623;46.104;19.656;2023-01-24T00:21:46;6.53;;;2.92;;
55718;SDS011;41623;46.104;19.656;2023-01-24T00:24:12;8.60;;;3.20;;
55718;SDS011;41623;46.104;19.656;2023-01-24T00:26:39;4.70;;;3.38;;
55718;SDS011;41623;46.104;19.656;2023-01-24T00:29:05;3.70;;;2.47;;
55718;SDS011;41623;46.104;19.656;2023-01-24T00:31:31;4.13;;;2.33;;
55718;SDS011;41623;46.104;19.656;2023-01-24T00:33:57;2.20;;;2.00;;
55718;SDS011;41623;46.104;19.656;2023-01-24T00:36:23;6.78;;;2.30;;
55718;SDS011;41623;46.104;19.656;2023-01-24T00:38:49;3.83;;;2.75;;
55718;SDS011;41623;46.104;19.656;2023-01-24T00:41:15;2.85;;;2.20;;
55718;SDS011;41623;46.104;19.656;2023-01-24T00:43:42;1.75;;;1.52;;
55718;SDS011;41623;46.104;19.656;2023-01-24T00:46:09;2.25;;;1.63;;
55718;SDS011;41623;46.104;19.656;2023-01-24T00:48:35;2.90;;;2.13;;
55718;SDS011;41623;46.104;19.656;2023-01-24T00:51:01;1.80;;;1.63;;
55718;SDS011;41623;46.104;19.656;2023-01-24T00:53:27;1.00;;;1.00;;
55718;SDS011;41623;46.104;19.656;2023-01-24T00:55:53;1.92;;;1.75;;
55718;SDS011;41623;46.104;19.656;2023-01-24T00:58:25;1.25;;;1.02;;
55718;SDS011;41623;46.104;19.656;2023-01-24T01:00:54;1.38;;;1.27;;
55718;SDS011;41623;46.104;19.656;2023-01-24T01:03:21;1.33;;;1.23;;
55718;SDS011;41623;46.104;19.656;2023-01-24T01:05:47;1.75;;;1.60;;
55718;SDS011;41623;46.104;19.656;2023-01-24T01:08:13;2.20;;;1.83;;
55718;SDS011;41623;46.104;19.656;2023-01-24T01:10:39;1.35;;;1.25;;
55718;SDS011;41623;46.104;19.656;2023-01-24T01:13:06;1.80;;;1.48;;
55718;SDS011;41623;46.104;19.656;2023-01-24T01:15:32;1.40;;;1.30;;
55718;SDS011;41623;46.104;19.656;2023-01-24T01:17:58;1.15;;;1.13;;
55718;SDS011;41623;46.104;19.656;2023-01-24T01:20:24;1.83;;;1.52;;
55718;SDS011;41623;46.104;19.656;2023-01-24T01:22:52;2.05;;;1.60;;
55718;SDS011;41623;46.104;19.656;2023-01-24T01:25:18;2.85;;;1.98;;
55718;SDS011;41623;46.104;19.656;2023-01-24T01:27:49;1.58;;;1.48;;
55718;SDS011;41623;46.104;19.656;2023-01-24T01:30:15;3.13;;;2.03;;
55718;SDS011;41623;46.104;19.656;2023-01-24T01:32:41;1.05;;;1.05;;
55718;SDS011;41623;46.104;19.656;2023-01-24T01:35:07;1.42;;;1.33;;
55718;SDS011;41623;46.104;19.656;2023-01-24T01:37:33;1.52;;;1.30;;
55718;SDS011;41623;46.104;19.656;2023-01-24T01:39:59;1.40;;;1.20;;
55718;SDS011;41623;46.104;19.656;2023-01-24T01:42:36;1.30;;;1.20;;
55718;SDS011;41623;46.104;19.656;2023-01-24T01:47:49;1.42;;;1.33;;
55718;SDS011;41623;46.104;19.656;2023-01-24T01:50:19;1.27;;;1.17;;
55718;SDS011;41623;46.104;19.656;2023-01-24T01:52:48;2.47;;;1.63;;
55718;SDS011;41623;46.104;19.656;2023-01-24T01:55:16;1.40;;;1.30;;
55718;SDS011;41623;46.104;19.656;2023-01-24T01:57:43;1.10;;;1.08;;
55718;SDS011;41623;46.104;19.656;2023-01-24T02:00:15;1.27;;;1.17;;
55718;SDS011;41623;46.104;19.656;2023-01-24T02:02:45;1.30;;;1.20;;
55718;SDS011;41623;46.104;19.656;2023-01-24T02:05:13;1.48;;;1.20;;
55718;SDS011;41623;46.104;19.656;2023-01-24T02:07:47;1.90;;;1.77;;
55718;SDS011;41623;46.104;19.656;2023-01-24T02:10:15;1.30;;;1.20;;
55718;SDS011;41623;46.104;19.656;2023-01-24T02:12:42;1.00;;;1.00;;
55718;SDS011;41623;46.104;19.656;2023-01-24T02:15:16;1.05;;;0.98;;
55718;SDS011;41623;46.104;19.656;2023-01-24T02:18:01;1.25;;;1.15;;
55718;SDS011;41623;46.104;19.656;2023-01-24T02:25:49;1.45;;;1.35;;
55718;SDS011;41623;46.104;19.656;2023-01-24T02:28:16;0.88;;;0.88;;
55718;SDS011;41623;46.104;19.656;2023-01-24T02:30:43;1.00;;;1.00;;
55718;SDS011;41623;46.104;19.656;2023-01-24T02:33:17;1.52;;;1.40;;
55718;SDS011;41623;46.104;19.656;2023-01-24T02:35:44;0.90;;;0.90;;
55718;SDS011;41623;46.104;19.656;2023-01-24T02:38:18;1.17;;;1.10;;
55718;SDS011;41623;46.104;19.656;2023-01-24T02:40:45;1.02;;;1.00;;
55718;SDS011;41623;46.104;19.656;2023-01-24T02:43:12;1.40;;;1.30;;
55718;SDS011;41623;46.104;19.656;2023-01-24T02:45:39;1.77;;;1.67;;
55718;SDS011;41623;46.104;19.656;2023-01-24T02:48:05;2.72;;;1.80;;
55718;SDS011;41623;46.104;19.656;2023-01-24T02:50:31;1.50;;;1.40;;
55718;SDS011;41623;46.104;19.656;2023-01-24T02:53:18;0.82;;;0.82;;
55718;SDS011;41623;46.104;19.656;2023-01-24T02:55:59;1.58;;;1.42;;
55718;SDS011;41623;46.104;19.656;2023-01-24T02:58:44;1.00;;;1.00;;
55718;SDS011;41623;46.104;19.656;2023-01-24T03:01:10;1.10;;;1.10;;
55718;SDS011;41623;46.104;19.656;2023-01-24T03:03:37;4.22;;;1.30;;
55718;SDS011;41623;46.104;19.656;2023-01-24T03:06:03;1.15;;;1.10;;
55718;SDS011;41623;46.104;19.656;2023-01-24T03:08:30;1.20;;;1.15;;
55718;SDS011;41623;46.104;19.656;2023-01-24T03:10:56;1.17;;;1.17;;
55718;SDS011;41623;46.104;19.656;2023-01-24T03:13:23;1.17;;;1.13;;
55718;SDS011;41623;46.104;19.656;2023-01-24T03:16:08;2.05;;;1.42;;
55718;SDS011;41623;46.104;19.656;2023-01-24T03:18:53;3.92;;;1.23;;
55718;SDS011;41623;46.104;19.656;2023-01-24T03:21:38;1.35;;;1.25;;
55718;SDS011;41623;46.104;19.656;2023-01-24T03:24:23;1.15;;;1.05;;
55718;SDS011;41623;46.104;19.656;2023-01-24T03:27:08;2.05;;;1.15;;
55718;SDS011;41623;46.104;19.656;2023-01-24T03:29:53;1.50;;;1.40;;
55718;SDS011;41623;46.104;19.656;2023-01-24T03:32:37;2.13;;;1.70;;
55718;SDS011;41623;46.104;19.656;2023-01-24T03:35:22;1.45;;;1.35;;
55718;SDS011;41623;46.104;19.656;2023-01-24T03:37:48;1.65;;;1.55;;
55718;SDS011;41623;46.104;19.656;2023-01-24T03:40:33;1.40;;;1.27;;
55718;SDS011;41623;46.104;19.656;2023-01-24T03:43:00;2.17;;;1.50;;
55718;SDS011;41623;46.104;19.656;2023-01-24T03:45:27;1.48;;;1.33;;
55718;SDS011;41623;46.104;19.656;2023-01-24T03:47:54;1.58;;;1.42;;
55718;SDS011;41623;46.104;19.656;2023-01-24T03:50:24;1.33;;;1.23;;
55718;SDS011;41623;46.104;19.656;2023-01-24T03:53:10;1.40;;;1.33;;
55718;SDS011;41623;46.104;19.656;2023-01-24T03:55:36;1.30;;;1.20;;
55718;SDS011;41623;46.104;19.656;2023-01-24T03:58:03;2.95;;;1.52;;
55718;SDS011;41623;46.104;19.656;2023-01-24T04:00:29;2.17;;;1.60;;
55718;SDS011;41623;46.104;19.656;2023-01-24T04:02:55;1.90;;;1.63;;
55718;SDS011;41623;46.104;19.656;2023-01-24T04:05:21;2.42;;;2.13;;
55718;SDS011;41623;46.104;19.656;2023-01-24T04:07:47;1.65;;;1.55;;
55718;SDS011;41623;46.104;19.656;2023-01-24T04:10:14;1.63;;;1.30;;
55718;SDS011;41623;46.104;19.656;2023-01-24T04:12:40;2.17;;;1.40;;
55718;SDS011;41623;46.104;19.656;2023-01-24T04:15:07;4.93;;;1.50;;
55718;SDS011;41623;46.104;19.656;2023-01-24T04:17:33;2.13;;;1.42;;
55718;SDS011;41623;46.104;19.656;2023-01-24T04:19:59;1.90;;;1.48;;
55718;SDS011;41623;46.104;19.656;2023-01-24T04:22:25;1.38;;;1.27;;
55718;SDS011;41623;46.104;19.656;2023-01-24T04:24:51;1.63;;;1.52;;
55718;SDS011;41623;46.104;19.656;2023-01-24T04:27:17;1.55;;;1.20;;
55718;SDS011;41623;46.104;19.656;2023-01-24T04:29:43;1.95;;;1.60;;
55718;SDS011;41623;46.104;19.656;2023-01-24T04:32:09;2.08;;;1.67;;
55718;SDS011;41623;46.104;19.656;2023-01-24T04:34:35;6.72;;;2.70;;
55718;SDS011;41623;46.104;19.656;2023-01-24T04:37:01;6.55;;;3.45;;
55718;SDS011;41623;46.104;19.656;2023-01-24T04:39:27;11.90;;;3.97;;
55718;SDS011;41623;46.104;19.656;2023-01-24T04:41:54;9.38;;;3.47;;
55718;SDS011;41623;46.104;19.656;2023-01-24T04:44:20;6.45;;;2.75;;
55718;SDS011;41623;46.104;19.656;2023-01-24T04:46:46;5.85;;;2.47;;
55718;SDS011;41623;46.104;19.656;2023-01-24T04:49:12;4.40;;;2.83;;
55718;SDS011;41623;46.104;19.656;2023-01-24T04:51:38;3.42;;;2.67;;
55718;SDS011;41623;46.104;19.656;2023-01-24T04:54:08;5.43;;;2.05;;
55718;SDS011;41623;46.104;19.656;2023-01-24T04:56:35;7.47;;;2.08;;
55718;SDS011;41623;46.104;19.656;2023-01-24T04:59:01;3.40;;;1.98;;
55718;SDS011;41623;46.104;19.656;2023-01-24T05:01:27;3.28;;;2.00;;
55718;SDS011;41623;46.104;19.656;2023-01-24T05:03:53;1.30;;;1.20;;
55718;SDS011;41623;46.104;19.656;2023-01-24T05:06:26;0.90;;;0.90;;
55718;SDS011;41623;46.104;19.656;2023-01-24T05:08:53;1.00;;;1.00;;
55718;SDS011;41623;46.104;19.656;2023-01-24T05:11:20;1.60;;;1.10;;
55718;SDS011;41623;46.104;19.656;2023-01-24T05:13:46;0.73;;;0.73;;
55718;SDS011;41623;46.104;19.656;2023-01-24T05:16:12;1.23;;;1.13;;
55718;SDS011;41623;46.104;19.656;2023-01-24T05:18:38;3.63;;;1.40;;
55718;SDS011;41623;46.104;19.656;2023-01-24T05:21:08;1.50;;;1.30;;
55718;SDS011;41623;46.104;19.656;2023-01-24T05:23:34;2.17;;;1.40;;
55718;SDS011;41623;46.104;19.656;2023-01-24T05:26:01;1.63;;;1.52;;
55718;SDS011;41623;46.104;19.656;2023-01-24T05:28:27;1.65;;;1.45;;
55718;SDS011;41623;46.104;19.656;2023-01-24T05:30:57;6.00;;;1.63;;
55718;SDS011;41623;46.104;19.656;2023-01-24T05:33:23;1.55;;;1.30;;
55718;SDS011;41623;46.104;19.656;2023-01-24T05:35:55;1.92;;;1.45;;
55718;SDS011;41623;46.104;19.656;2023-01-24T05:38:21;1.40;;;1.30;;
55718;SDS011;41623;46.104;19.656;2023-01-24T05:40:47;1.50;;;1.40;;
55718;SDS011;41623;46.104;19.656;2023-01-24T05:43:13;1.58;;;1.38;;
55718;SDS011;41623;46.104;19.656;2023-01-24T05:45:39;2.22;;;2.00;;
55718;SDS011;41623;46.104;19.656;2023-01-24T05:48:05;3.45;;;2.17;;
55718;SDS011;41623;46.104;19.656;2023-01-24T05:50:31;1.52;;;1.42;;
55718;SDS011;41623;46.104;19.656;2023-01-24T05:53:00;4.47;;;1.85;;
55718;SDS011;41623;46.104;19.656;2023-01-24T05:55:26;5.25;;;3.00;;
55718;SDS011;41623;46.104;19.656;2023-01-24T05:57:53;4.47;;;1.92;;
55718;SDS011;41623;46.104;19.656;2023-01-24T06:00:19;3.20;;;1.85;;
55718;SDS011;41623;46.104;19.656;2023-01-24T06:02:46;2.75;;;1.98;;
55718;SDS011;41623;46.104;19.656;2023-01-24T06:05:12;1.50;;;1.40;;
55718;SDS011;41623;46.104;19.656;2023-01-24T06:07:38;3.90;;;2.08;;
55718;SDS011;41623;46.104;19.656;2023-01-24T06:10:04;3.10;;;1.40;;
55718;SDS011;41623;46.104;19.656;2023-01-24T06:12:30;3.63;;;1.98;;
55718;SDS011;41623;46.104;19.656;2023-01-24T06:14:56;9.10;;;3.05;;
55718;SDS011;41623;46.104;19.656;2023-01-24T06:17:22;5.88;;;2.75;;
55718;SDS011;41623;46.104;19.656;2023-01-24T06:19:48;3.78;;;2.60;;
55718;SDS011;41623;46.104;19.656;2023-01-24T06:22:25;15.45;;;4.50;;
55718;SDS011;41623;46.104;19.656;2023-01-24T06:24:54;9.93;;;4.90;;
55718;SDS011;41623;46.104;19.656;2023-01-24T06:27:20;6.03;;;3.65;;
55718;SDS011;41623;46.104;19.656;2023-01-24T06:29:47;6.57;;;3.33;;
55718;SDS011;41623;46.104;19.656;2023-01-24T06:37:21;13.80;;;3.95;;
55718;SDS011;41623;46.104;19.656;2023-01-24T06:39:53;4.55;;;3.10;;
55718;SDS011;41623;46.104;19.656;2023-01-24T06:42:20;6.30;;;1.95;;
55718;SDS011;41623;46.104;19.656;2023-01-24T06:44:46;5.20;;;2.83;;
55718;SDS011;41623;46.104;19.656;2023-01-24T06:47:13;6.72;;;2.33;;
55718;SDS011;41623;46.104;19.656;2023-01-24T06:49:39;1.75;;;1.58;;
55718;SDS011;41623;46.104;19.656;2023-01-24T06:52:06;1.95;;;1.75;;
55718;SDS011;41623;46.104;19.656;2023-01-24T06:54:35;2.55;;;1.75;;
55718;SDS011;41623;46.104;19.656;2023-01-24T06:57:01;2.55;;;2.08;;
55718;SDS011;41623;46.104;19.656;2023-01-24T06:59:28;3.80;;;2.55;;
55718;SDS011;41623;46.104;19.656;2023-01-24T07:01:54;4.93;;;2.17;;
55718;SDS011;41623;46.104;19.656;2023-01-24T07:04:20;6.40;;;2.65;;
55718;SDS011;41623;46.104;19.656;2023-01-24T07:06:46;3.53;;;2.05;;
55718;SDS011;41623;46.104;19.656;2023-01-24T07:09:17;5.40;;;2.17;;
55718;SDS011;41623;46.104;19.656;2023-01-24T07:11:43;1.65;;;1.30;;
55718;SDS011;41623;46.104;19.656;2023-01-24T07:14:09;1.92;;;1.77;;
55718;SDS011;41623;46.104;19.656;2023-01-24T07:16:35;2.53;;;2.03;;
55718;SDS011;41623;46.104;19.656;2023-01-24T07:19:03;2.63;;;2.25;;
55718;SDS011;41623;46.104;19.656;2023-01-24T07:21:29;2.15;;;1.63;;
55718;SDS011;41623;46.104;19.656;2023-01-24T07:23:55;2.08;;;1.55;;
55718;SDS011;41623;46.104;19.656;2023-01-24T07:26:23;1.38;;;1.27;;
55718;SDS011;41623;46.104;19.656;2023-01-24T07:28:49;2.05;;;1.80;;
55718;SDS011;41623;46.104;19.656;2023-01-24T07:31:15;3.05;;;2.13;;
55718;SDS011;41623;46.104;19.656;2023-01-24T07:33:42;3.92;;;2.05;;
55718;SDS011;41623;46.104;19.656;2023-01-24T07:36:12;4.30;;;2.00;;
55718;SDS011;41623;46.104;19.656;2023-01-24T07:38:39;4.32;;;1.55;;
55718;SDS011;41623;46.104;19.656;2023-01-24T07:41:09;2.15;;;1.92;;
55718;SDS011;41623;46.104;19.656;2023-01-24T07:43:35;7.20;;;2.67;;
55718;SDS011;41623;46.104;19.656;2023-01-24T07:46:01;4.13;;;2.53;;
55718;SDS011;41623;46.104;19.656;2023-01-24T07:48:28;2.33;;;1.83;;
55718;SDS011;41623;46.104;19.656;2023-01-24T07:50:57;2.42;;;2.05;;
55718;SDS011;41623;46.104;19.656;2023-01-24T07:53:24;1.95;;;1.85;;
55718;SDS011;41623;46.104;19.656;2023-01-24T07:55:50;1.23;;;1.13;;
55718;SDS011;41623;46.104;19.656;2023-01-24T07:58:16;1.67;;;1.58;;
55718;SDS011;41623;46.104;19.656;2023-01-24T08:00:42;2.10;;;1.80;;
55718;SDS011;41623;46.104;19.656;2023-01-24T08:03:09;1.70;;;1.52;;
55718;SDS011;41623;46.104;19.656;2023-01-24T08:05:38;1.70;;;1.45;;
55718;SDS011;41623;46.104;19.656;2023-01-24T08:08:04;1.55;;;1.40;;
55718;SDS011;41623;46.104;19.656;2023-01-24T08:10:31;1.55;;;1.45;;
55718;SDS011;41623;46.104;19.656;2023-01-24T08:12:57;1.83;;;1.58;;
55718;SDS011;41623;46.104;19.656;2023-01-24T08:15:23;4.28;;;2.85;;
55718;SDS011;41623;46.104;19.656;2023-01-24T08:17:50;3.15;;;2.45;;
55718;SDS011;41623;46.104;19.656;2023-01-24T08:20:16;1.70;;;1.52;;
55718;SDS011;41623;46.104;19.656;2023-01-24T08:22:42;1.63;;;1.52;;
55718;SDS011;41623;46.104;19.656;2023-01-24T08:25:08;1.70;;;1.60;;
55718;SDS011;41623;46.104;19.656;2023-01-24T08:27:35;14.93;;;5.10;;
55718;SDS011;41623;46.104;19.656;2023-01-24T08:30:01;12.57;;;4.75;;
55718;SDS011;41623;46.104;19.656;2023-01-24T08:32:28;3.92;;;2.13;;
55718;SDS011;41623;46.104;19.656;2023-01-24T08:34:56;1.88;;;1.58;;
55718;SDS011;41623;46.104;19.656;2023-01-24T08:37:22;2.13;;;1.77;;
55718;SDS011;41623;46.104;19.656;2023-01-24T08:39:48;2.08;;;1.67;;
55718;SDS011;41623;46.104;19.656;2023-01-24T08:42:15;2.42;;;2.00;;
55718;SDS011;41623;46.104;19.656;2023-01-24T08:44:41;2.95;;;2.10;;
55718;SDS011;41623;46.104;19.656;2023-01-24T08:47:07;1.63;;;1.50;;
55718;SDS011;41623;46.104;19.656;2023-01-24T08:49:33;2.60;;;1.63;;
55718;SDS011;41623;46.104;19.656;2023-01-24T08:51:59;3.45;;;2.10;;
55718;SDS011;41623;46.104;19.656;2023-01-24T08:54:26;3.85;;;2.20;;
55718;SDS011;41623;46.104;19.656;2023-01-24T08:56:52;4.18;;;2.10;;
55718;SDS011;41623;46.104;19.656;2023-01-24T08:59:18;2.80;;;2.25;;
55718;SDS011;41623;46.104;19.656;2023-01-24T09:01:44;3.42;;;1.65;;
55718;SDS011;41623;46.104;19.656;2023-01-24T09:04:10;1.63;;;1.42;;
55718;SDS011;41623;46.104;19.656;2023-01-24T09:06:37;4.20;;;2.45;;
55718;SDS011;41623;46.104;19.656;2023-01-24T09:09:03;3.92;;;2.38;;
55718;SDS011;41623;46.104;19.656;2023-01-24T09:11:30;3.75;;;2.67;;
55718;SDS011;41623;46.104;19.656;2023-01-24T09:13:56;5.05;;;1.67;;
55718;SDS011;41623;46.104;19.656;2023-01-24T09:16:22;3.03;;;2.33;;
55718;SDS011;41623;46.104;19.656;2023-01-24T09:18:49;1.70;;;1.45;;
55718;SDS011;41623;46.104;19.656;2023-01-24T09:21:16;1.52;;;1.42;;
55718;SDS011;41623;46.104;19.656;2023-01-24T09:23:42;1.73;;;1.63;;
55718;SDS011;41623;46.104;19.656;2023-01-24T09:26:08;7.20;;;2.03;;
55718;SDS011;41623;46.104;19.656;2023-01-24T09:31:38;1.58;;;1.48;;
55718;SDS011;41623;46.104;19.656;2023-01-24T09:34:04;1.33;;;1.23;;
55718;SDS011;41623;46.104;19.656;2023-01-24T09:36:32;1.45;;;1.30;;
55718;SDS011;41623;46.104;19.656;2023-01-24T09:38:58;5.63;;;2.40;;
55718;SDS011;41623;46.104;19.656;2023-01-24T09:43:58;3.55;;;1.92;;
55718;SDS011;41623;46.104;19.656;2023-01-24T09:46:30;4.10;;;2.08;;
55718;SDS011;41623;46.104;19.656;2023-01-24T09:51:34;2.88;;;2.03;;
55718;SDS011;41623;46.104;19.656;2023-01-24T09:54:01;1.60;;;1.50;;
55718;SDS011;41623;46.104;19.656;2023-01-24T09:56:32;1.70;;;1.33;;
55718;SDS011;41623;46.104;19.656;2023-01-24T10:01:35;5.68;;;2.75;;
55718;SDS011;41623;46.104;19.656;2023-01-24T10:04:03;1.60;;;1.38;;
55718;SDS011;41623;46.104;19.656;2023-01-24T10:06:30;2.05;;;1.80;;
55718;SDS011;41623;46.104;19.656;2023-01-24T10:09:13;1.92;;;1.55;;
55718;SDS011;41623;46.104;19.656;2023-01-24T10:22:12;2.30;;;1.80;;
55718;SDS011;41623;46.104;19.656;2023-01-24T10:24:40;6.80;;;2.70;;
55718;SDS011;41623;46.104;19.656;2023-01-24T10:27:18;7.20;;;4.20;;
55718;SDS011;41623;46.104;19.656;2023-01-24T10:29:44;4.75;;;2.33;;
55718;SDS011;41623;46.104;19.656;2023-01-24T10:32:14;3.75;;;2.70;;
55718;SDS011;41623;46.104;19.656;2023-01-24T10:34:48;3.67;;;2.35;;
55718;SDS011;41623;46.104;19.656;2023-01-24T10:39:44;3.42;;;1.63;;
55718;SDS011;41623;46.104;19.656;2023-01-24T10:42:26;3.15;;;2.47;;
55718;SDS011;41623;46.104;19.656;2023-01-24T10:44:53;4.93;;;2.85;;
55718;SDS011;41623;46.104;19.656;2023-01-24T10:50:12;2.13;;;1.60;;
55718;SDS011;41623;46.104;19.656;2023-01-24T10:52:39;6.97;;;2.60;;
55718;SDS011;41623;46.104;19.656;2023-01-24T10:55:21;4.60;;;2.63;;
55718;SDS011;41623;46.104;19.656;2023-01-24T10:57:48;4.35;;;1.95;;
55718;SDS011;41623;46.104;19.656;2023-01-24T11:02:49;4.53;;;1.85;;
55718;SDS011;41623;46.104;19.656;2023-01-24T11:05:16;3.22;;;1.77;;
55718;SDS011;41623;46.104;19.656;2023-01-24T11:07:46;3.03;;;1.88;;
55718;SDS011;41623;46.104;19.656;2023-01-24T11:10:26;8.32;;;2.30;;
55718;SDS011;41623;46.104;19.656;2023-01-24T11:12:53;2.35;;;1.63;;
55718;SDS011;41623;46.104;19.656;2023-01-24T11:15:22;6.32;;;2.08;;
55718;SDS011;41623;46.104;19.656;2023-01-24T11:17:51;4.78;;;2.13;;
55718;SDS011;41623;46.104;19.656;2023-01-24T11:20:27;5.88;;;2.35;;
55718;SDS011;41623;46.104;19.656;2023-01-24T11:23:14;4.38;;;1.50;;
55718;SDS011;41623;46.104;19.656;2023-01-24T11:25:51;2.45;;;1.63;;
55718;SDS011;41623;46.104;19.656;2023-01-24T11:28:38;1.80;;;1.50;;
55718;SDS011;41623;46.104;19.656;2023-01-24T11:31:06;3.30;;;1.98;;
55718;SDS011;41623;46.104;19.656;2023-01-24T11:37:06;3.53;;;1.83;;
55718;SDS011;41623;46.104;19.656;2023-01-24T11:41:59;1.35;;;1.25;;
55718;SDS011;41623;46.104;19.656;2023-01-24T11:46:57;1.45;;;1.30;;
55718;SDS011;41623;46.104;19.656;2023-01-24T11:52:27;1.65;;;1.40;;
55718;SDS011;41623;46.104;19.656;2023-01-24T12:18:35;2.58;;;1.90;;
55718;SDS011;41623;46.104;19.656;2023-01-24T12:21:08;1.75;;;1.48;;
55718;SDS011;41623;46.104;19.656;2023-01-24T12:23:47;4.70;;;2.30;;
55718;SDS011;41623;46.104;19.656;2023-01-24T12:26:17;1.88;;;1.65;;
55718;SDS011;41623;46.104;19.656;2023-01-24T12:31:32;2.25;;;1.75;;
55718;SDS011;41623;46.104;19.656;2023-01-24T12:34:04;7.43;;;3.03;;
55718;SDS011;41623;46.104;19.656;2023-01-24T12:36:41;3.78;;;2.75;;
55718;SDS011;41623;46.104;19.656;2023-01-24T12:39:15;9.15;;;3.50;;
55718;SDS011;41623;46.104;19.656;2023-01-24T12:41:45;1.98;;;1.88;;
55718;SDS011;41623;46.104;19.656;2023-01-24T12:54:58;2.58;;;2.10;;
55718;SDS011;41623;46.104;19.656;2023-01-24T12:57:25;3.38;;;2.28;;
55718;SDS011;41623;46.104;19.656;2023-01-24T12:59:53;4.68;;;1.92;;
55718;SDS011;41623;46.104;19.656;2023-01-24T13:02:24;4.40;;;2.92;;
55718;SDS011;41623;46.104;19.656;2023-01-24T13:12:50;3.47;;;2.22;;
55718;SDS011;41623;46.104;19.656;2023-01-24T13:15:21;3.20;;;1.67;;
55718;SDS011;41623;46.104;19.656;2023-01-24T13:23:13;3.25;;;1.95;;
55718;SDS011;41623;46.104;19.656;2023-01-24T13:26:26;2.33;;;2.03;;
55718;SDS011;41623;46.104;19.656;2023-01-24T13:33:48;5.57;;;2.47;;
55718;SDS011;41623;46.104;19.656;2023-01-24T13:36:17;4.13;;;2.05;;
55718;SDS011;41623;46.104;19.656;2023-01-24T13:38:44;3.92;;;2.63;;
55718;SDS011;41623;46.104;19.656;2023-01-24T13:41:32;4.40;;;2.67;;
55718;SDS011;41623;46.104;19.656;2023-01-24T13:43:58;7.25;;;1.88;;
55718;SDS011;41623;46.104;19.656;2023-01-24T13:46:55;5.68;;;2.67;;
55718;SDS011;41623;46.104;19.656;2023-01-24T13:49:17;6.82;;;2.80;;
55718;SDS011;41623;46.104;19.656;2023-01-24T13:51:46;7.20;;;3.40;;
55718;SDS011;41623;46.104;19.656;2023-01-24T13:54:17;1.90;;;1.70;;
55718;SDS011;41623;46.104;19.656;2023-01-24T13:59:32;4.65;;;2.80;;
55718;SDS011;41623;46.104;19.656;2023-01-24T14:02:00;8.65;;;3.50;;
55718;SDS011;41623;46.104;19.656;2023-01-24T14:04:39;11.25;;;4.80;;
55718;SDS011;41623;46.104;19.656;2023-01-24T14:07:18;10.70;;;4.28;;
55718;SDS011;41623;46.104;19.656;2023-01-24T14:09:45;8.95;;;3.53;;
55718;SDS011;41623;46.104;19.656;2023-01-24T14:12:15;4.65;;;2.53;;
55718;SDS011;41623;46.104;19.656;2023-01-24T14:17:43;1.80;;;1.67;;
55718;SDS011;41623;46.104;19.656;2023-01-24T14:22:44;4.63;;;1.42;;
55718;SDS011;41623;46.104;19.656;2023-01-24T14:25:24;2.83;;;1.83;;
55718;SDS011;41623;46.104;19.656;2023-01-24T14:28:02;4.18;;;1.85;;
55718;SDS011;41623;46.104;19.656;2023-01-24T14:30:35;3.38;;;1.80;;
55718;SDS011;41623;46.104;19.656;2023-01-24T14:33:45;2.03;;;1.83;;
55718;SDS011;41623;46.104;19.656;2023-01-24T14:36:05;2.45;;;1.88;;
55718;SDS011;41623;46.104;19.656;2023-01-24T14:38:35;1.75;;;1.58;;
55718;SDS011;41623;46.104;19.656;2023-01-24T14:41:01;1.90;;;1.30;;
55718;SDS011;41623;46.104;19.656;2023-01-24T14:43:36;6.45;;;2.67;;
55718;SDS011;41623;46.104;19.656;2023-01-24T14:46:36;1.75;;;1.65;;
55718;SDS011;41623;46.104;19.656;2023-01-24T14:48:55;4.50;;;2.92;;
55718;SDS011;41623;46.104;19.656;2023-01-24T14:51:22;8.00;;;2.88;;
55718;SDS011;41623;46.104;19.656;2023-01-24T14:53:52;2.85;;;2.13;;
55718;SDS011;41623;46.104;19.656;2023-01-24T14:56:19;4.00;;;1.45;;
55718;SDS011;41623;46.104;19.656;2023-01-24T14:58:45;3.40;;;2.13;;
55718;SDS011;41623;46.104;19.656;2023-01-24T15:01:28;9.27;;;4.13;;
55718;SDS011;41623;46.104;19.656;2023-01-24T15:03:56;8.27;;;3.97;;
55718;SDS011;41623;46.104;19.656;2023-01-24T15:06:22;5.55;;;2.58;;
55718;SDS011;41623;46.104;19.656;2023-01-24T15:08:52;4.05;;;2.47;;
55718;SDS011;41623;46.104;19.656;2023-01-24T15:11:26;6.15;;;3.28;;
55718;SDS011;41623;46.104;19.656;2023-01-24T15:13:58;10.00;;;4.60;;
55718;SDS011;41623;46.104;19.656;2023-01-24T15:16:29;13.30;;;5.20;;
55718;SDS011;41623;46.104;19.656;2023-01-24T15:19:04;3.40;;;2.65;;
55718;SDS011;41623;46.104;19.656;2023-01-24T15:21:32;1.98;;;1.50;;
55718;SDS011;41623;46.104;19.656;2023-01-24T15:23:58;8.10;;;2.90;;
55718;SDS011;41623;46.104;19.656;2023-01-24T15:28:57;1.70;;;1.38;;
55718;SDS011;41623;46.104;19.656;2023-01-24T15:31:27;3.78;;;2.75;;
55718;SDS011;41623;46.104;19.656;2023-01-24T15:33:58;4.50;;;3.08;;
55718;SDS011;41623;46.104;19.656;2023-01-24T15:36:25;4.63;;;2.95;;
55718;SDS011;41623;46.104;19.656;2023-01-24T15:38:52;9.88;;;3.38;;
55718;SDS011;41623;46.104;19.656;2023-01-24T15:41:20;4.18;;;3.30;;
55718;SDS011;41623;46.104;19.656;2023-01-24T15:44:00;6.68;;;2.72;;
55718;SDS011;41623;46.104;19.656;2023-01-24T15:46:29;4.07;;;2.60;;
55718;SDS011;41623;46.104;19.656;2023-01-24T15:54:41;3.88;;;2.70;;
55718;SDS011;41623;46.104;19.656;2023-01-24T15:59:40;6.20;;;3.55;;
55718;SDS011;41623;46.104;19.656;2023-01-24T16:02:11;25.00;;;7.85;;
55718;SDS011;41623;46.104;19.656;2023-01-24T16:04:37;39.78;;;10.23;;
55718;SDS011;41623;46.104;19.656;2023-01-24T16:07:03;17.13;;;6.72;;
55718;SDS011;41623;46.104;19.656;2023-01-24T16:09:29;14.02;;;5.22;;
55718;SDS011;41623;46.104;19.656;2023-01-24T16:11:56;9.60;;;5.15;;
55718;SDS011;41623;46.104;19.656;2023-01-24T16:14:23;7.97;;;5.22;;
55718;SDS011;41623;46.104;19.656;2023-01-24T16:16:53;6.60;;;3.30;;
55718;SDS011;41623;46.104;19.656;2023-01-24T16:19:23;7.30;;;4.07;;
55718;SDS011;41623;46.104;19.656;2023-01-24T16:21:49;13.57;;;4.35;;
55718;SDS011;41623;46.104;19.656;2023-01-24T16:24:16;7.63;;;4.63;;
55718;SDS011;41623;46.104;19.656;2023-01-24T16:26:47;10.68;;;5.13;;
55718;SDS011;41623;46.104;19.656;2023-01-24T16:29:14;11.63;;;4.97;;
55718;SDS011;41623;46.104;19.656;2023-01-24T16:31:41;7.32;;;4.15;;
55718;SDS011;41623;46.104;19.656;2023-01-24T16:34:07;14.60;;;5.07;;
55718;SDS011;41623;46.104;19.656;2023-01-24T16:36:34;13.27;;;4.78;;
55718;SDS011;41623;46.104;19.656;2023-01-24T16:39:00;12.55;;;4.45;;
55718;SDS011;41623;46.104;19.656;2023-01-24T16:41:26;15.75;;;5.85;;
55718;SDS011;41623;46.104;19.656;2023-01-24T16:43:52;11.07;;;4.03;;
55718;SDS011;41623;46.104;19.656;2023-01-24T16:46:19;8.05;;;4.43;;
55718;SDS011;41623;46.104;19.656;2023-01-24T16:48:45;7.35;;;4.38;;
55718;SDS011;41623;46.104;19.656;2023-01-24T16:51:12;5.97;;;3.08;;
55718;SDS011;41623;46.104;19.656;2023-01-24T16:53:38;4.50;;;2.50;;